Time;durP1;ratioP1;P1;durP2;ratioP2;P2;SDS_P1;SDS_P2;PMS_P1;PMS_P2;Temp;Humidity;BMP_temperature;BMP_pressure;BME280_temperature;BME280_humidity;BME280_pressure;Samples;Min_cycle;Max_cycle;Signal;HPM_P1;HPM_P2
2022/12/04 00:00:15;;;;;;;21.20;19.00;;;;;;;;;;5136649;28;20330;-66
2022/12/04 00:02:44;;;;;;;20.00;17.90;;;;;;;;;;5137653;28;20194;-66
2022/12/04 00:05:12;;;;;;;19.23;17.23;;;;;;;;;;5137890;28;20202;-66
2022/12/04 00:07:39;;;;;;;19.63;17.42;;;;;;;;;;5137253;27;20198;-66
2022/12/04 00:10:08;;;;;;;19.00;17.00;;;;;;;;;;5140767;27;20203;-66
2022/12/04 00:12:36;;;;;;;19.15;17.25;;;;;;;;;;5141212;27;20288;-66
2022/12/04 00:15:04;;;;;;;19.02;17.13;;;;;;;;;;5140729;27;20630;-66
2022/12/04 00:17:32;;;;;;;18.67;16.77;;;;;;;;;;5140801;27;20225;-66
2022/12/04 00:20:01;;;;;;;18.42;16.55;;;;;;;;;;5140783;27;20244;-67
2022/12/04 00:22:28;;;;;;;18.10;16.20;;;;;;;;;;5141277;27;20263;-67
2022/12/04 00:24:56;;;;;;;17.17;15.48;;;;;;;;;;5140801;27;20258;-66
2022/12/04 00:27:24;;;;;;;17.00;15.20;;;;;;;;;;5140589;27;20206;-66
2022/12/04 00:29:51;;;;;;;17.38;15.57;;;;;;;;;;5141149;27;20612;-66
2022/12/04 00:32:19;;;;;;;16.63;15.00;;;;;;;;;;5140788;27;20206;-67
2022/12/04 00:34:47;;;;;;;16.70;15.00;;;;;;;;;;5140393;27;20209;-66
2022/12/04 00:37:16;;;;;;;16.02;14.30;;;;;;;;;;5140582;27;20302;-66
2022/12/04 00:39:44;;;;;;;16.92;15.13;;;;;;;;;;5140652;27;20202;-66
2022/12/04 00:42:11;;;;;;;15.77;14.18;;;;;;;;;;5140301;27;20232;-66
2022/12/04 00:44:39;;;;;;;16.67;14.68;;;;;;;;;;5140996;27;20206;-66
2022/12/04 00:47:07;;;;;;;15.75;14.15;;;;;;;;;;5140462;27;20291;-68
2022/12/04 00:49:34;;;;;;;15.60;13.95;;;;;;;;;;5140661;27;20238;-66
2022/12/04 00:52:02;;;;;;;15.70;14.10;;;;;;;;;;5140306;27;20206;-66
2022/12/04 00:54:31;;;;;;;15.70;14.10;;;;;;;;;;5140041;27;20679;-66
2022/12/04 00:56:59;;;;;;;15.40;13.88;;;;;;;;;;5140365;27;20218;-66
2022/12/04 00:59:27;;;;;;;14.23;12.82;;;;;;;;;;5140296;27;20630;-67
2022/12/04 01:01:54;;;;;;;15.18;13.63;;;;;;;;;;5139990;27;20620;-66
2022/12/04 01:04:24;;;;;;;14.65;13.15;;;;;;;;;;5140235;27;20228;-67
2022/12/04 01:06:52;;;;;;;13.45;12.15;;;;;;;;;;5140121;27;20237;-66
2022/12/04 01:09:20;;;;;;;14.68;13.18;;;;;;;;;;5139976;27;20225;-67
2022/12/04 01:11:49;;;;;;;14.18;12.68;;;;;;;;;;5140081;27;20198;-66
2022/12/04 01:14:16;;;;;;;14.52;13.02;;;;;;;;;;5139751;27;20202;-67
2022/12/04 01:16:44;;;;;;;14.48;12.90;;;;;;;;;;5139681;27;20202;-66
2022/12/04 01:19:13;;;;;;;13.75;12.45;;;;;;;;;;5140054;27;20612;-66
2022/12/04 01:21:41;;;;;;;13.77;12.38;;;;;;;;;;5139436;27;20214;-67
2022/12/04 01:24:09;;;;;;;13.93;12.52;;;;;;;;;;5140227;27;20239;-66
2022/12/04 01:26:37;;;;;;;13.48;12.07;;;;;;;;;;5139824;27;20297;-66
2022/12/04 01:29:06;;;;;;;13.52;12.13;;;;;;;;;;5139325;27;20229;-66
2022/12/04 01:31:34;;;;;;;13.13;11.82;;;;;;;;;;5139199;27;20213;-67
2022/12/04 01:34:01;;;;;;;13.70;12.30;;;;;;;;;;5139100;27;20266;-66
2022/12/04 01:36:29;;;;;;;13.02;11.73;;;;;;;;;;5139548;27;20202;-66
2022/12/04 01:38:57;;;;;;;12.00;10.80;;;;;;;;;;5140032;27;20321;-66
2022/12/04 01:41:26;;;;;;;12.25;10.95;;;;;;;;;;5139610;27;20285;-67
2022/12/04 01:44:11;;;;;;;12.55;11.35;;;;;;;;;;5139848;27;20206;-66
2022/12/04 01:46:40;;;;;;;12.13;10.88;;;;;;;;;;5139344;27;20267;-66
2022/12/04 01:49:09;;;;;;;11.88;10.68;;;;;;;;;;5138599;27;20202;-66
2022/12/04 01:51:38;;;;;;;13.27;11.98;;;;;;;;;;5139493;27;20582;-66
2022/12/04 01:54:07;;;;;;;12.43;11.13;;;;;;;;;;5139279;27;20237;-66
2022/12/04 01:56:37;;;;;;;12.38;11.25;;;;;;;;;;5139662;27;20533;-66
2022/12/04 01:59:08;;;;;;;12.07;10.88;;;;;;;;;;5139367;27;20229;-66
2022/12/04 02:01:39;;;;;;;11.90;10.70;;;;;;;;;;5139466;27;20259;-66
2022/12/04 02:04:07;;;;;;;12.02;10.68;;;;;;;;;;5138713;27;20202;-67
2022/12/04 02:06:34;;;;;;;11.80;10.68;;;;;;;;;;5138444;27;20293;-66
2022/12/04 02:09:02;;;;;;;11.80;10.60;;;;;;;;;;5138517;27;20198;-66
2022/12/04 02:11:36;;;;;;;11.88;10.70;;;;;;;;;;5138879;27;20237;-66
2022/12/04 02:14:08;;;;;;;11.30;10.10;;;;;;;;;;5139032;27;20202;-66
2022/12/04 02:16:41;;;;;;;10.98;9.90;;;;;;;;;;5139143;27;20203;-66
2022/12/04 02:19:20;;;;;;;11.23;10.10;;;;;;;;;;5139083;27;20222;-66
2022/12/04 02:21:48;;;;;;;11.55;10.45;;;;;;;;;;5138614;27;20308;-66
2022/12/04 02:24:29;;;;;;;11.40;10.27;;;;;;;;;;5138121;27;20634;-66
2022/12/04 02:26:59;;;;;;;10.95;9.85;;;;;;;;;;5138847;27;20552;-67
2022/12/04 02:29:34;;;;;;;11.13;10.02;;;;;;;;;;5139065;27;20198;-66
2022/12/04 02:32:04;;;;;;;10.63;9.60;;;;;;;;;;5138639;27;20304;-66
2022/12/04 02:34:36;;;;;;;10.77;9.73;;;;;;;;;;5138885;27;20209;-67
2022/12/04 02:37:09;;;;;;;10.65;9.55;;;;;;;;;;5138807;27;20609;-67
2022/12/04 02:39:40;;;;;;;10.23;9.23;;;;;;;;;;5138495;27;20280;-68
2022/12/04 02:42:11;;;;;;;10.38;9.38;;;;;;;;;;5138292;27;20251;-68
2022/12/04 02:44:42;;;;;;;10.50;9.50;;;;;;;;;;5138418;27;20218;-67
2022/12/04 02:47:13;;;;;;;10.20;9.20;;;;;;;;;;5138667;27;20214;-67
2022/12/04 02:49:44;;;;;;;9.48;8.52;;;;;;;;;;5138477;27;20488;-68
2022/12/04 02:52:13;;;;;;;9.57;8.68;;;;;;;;;;5138368;27;20266;-68
2022/12/04 02:54:43;;;;;;;9.95;8.95;;;;;;;;;;5138185;27;20202;-68
2022/12/04 02:57:15;;;;;;;10.52;9.50;;;;;;;;;;5138441;27;20198;-67
2022/12/04 02:59:45;;;;;;;10.27;9.27;;;;;;;;;;5138285;27;20304;-67
2022/12/04 03:02:15;;;;;;;9.65;8.70;;;;;;;;;;5138052;27;20203;-68
2022/12/04 03:04:43;;;;;;;9.52;8.63;;;;;;;;;;5138266;27;20280;-68
2022/12/04 03:07:14;;;;;;;10.40;9.40;;;;;;;;;;5138346;27;20202;-67
2022/12/04 03:09:44;;;;;;;9.63;8.65;;;;;;;;;;5138303;27;20209;-68
2022/12/04 03:12:16;;;;;;;9.50;8.50;;;;;;;;;;5138343;28;20203;-67
2022/12/04 03:14:48;;;;;;;9.82;8.82;;;;;;;;;;5138580;27;20228;-67
2022/12/04 03:17:17;;;;;;;9.23;8.32;;;;;;;;;;5138137;28;20638;-67
2022/12/04 03:19:49;;;;;;;9.70;8.80;;;;;;;;;;5138685;27;20222;-68
2022/12/04 03:22:18;;;;;;;9.48;8.57;;;;;;;;;;5138450;28;20307;-68
2022/12/04 03:24:49;;;;;;;9.10;8.20;;;;;;;;;;5138235;27;20245;-68
2022/12/04 03:27:19;;;;;;;9.63;8.65;;;;;;;;;;5138290;27;20202;-68
2022/12/04 03:29:52;;;;;;;9.52;8.52;;;;;;;;;;5138063;28;20202;-67
2022/12/04 03:32:24;;;;;;;9.43;8.43;;;;;;;;;;5137852;27;20213;-68
2022/12/04 03:34:54;;;;;;;9.35;8.45;;;;;;;;;;5137935;28;20289;-68
2022/12/04 03:37:25;;;;;;;9.23;8.32;;;;;;;;;;5137772;27;20289;-68
2022/12/04 03:39:57;;;;;;;8.70;7.80;;;;;;;;;;5137884;28;20213;-67
2022/12/04 03:42:26;;;;;;;8.52;7.70;;;;;;;;;;5138020;27;20225;-67
2022/12/04 03:44:59;;;;;;;8.63;7.82;;;;;;;;;;5140822;27;20210;-68
2022/12/04 03:47:29;;;;;;;8.27;7.55;;;;;;;;;;5141906;27;20602;-68
2022/12/04 03:50:00;;;;;;;8.85;8.05;;;;;;;;;;5141672;27;20210;-68
2022/12/04 03:52:29;;;;;;;8.38;7.57;;;;;;;;;;5141498;27;20509;-68
2022/12/04 03:54:58;;;;;;;8.02;7.13;;;;;;;;;;5141768;27;20573;-67
2022/12/04 03:57:29;;;;;;;8.60;7.80;;;;;;;;;;5141918;27;20202;-67
2022/12/04 04:00:02;;;;;;;8.10;7.40;;;;;;;;;;5141970;27;20237;-68
2022/12/04 04:02:34;;;;;;;8.40;7.60;;;;;;;;;;5141891;27;20214;-68
2022/12/04 04:05:02;;;;;;;8.77;7.88;;;;;;;;;;5141905;27;20210;-67
2022/12/04 04:07:33;;;;;;;8.50;7.70;;;;;;;;;;5141667;27;20267;-67
2022/12/04 04:10:05;;;;;;;7.82;7.03;;;;;;;;;;5141576;27;20191;-68
2022/12/04 04:12:36;;;;;;;8.70;7.80;;;;;;;;;;5141150;27;20258;-67
2022/12/04 04:26:16;;;;;;;7.70;6.90;;;;;;;;;;5141145;27;20588;-68
2022/12/04 04:28:44;;;;;;;8.02;7.30;;;;;;;;;;5141786;27;20297;-68
2022/12/04 04:31:19;;;;;;;8.45;7.65;;;;;;;;;;5141636;27;20210;-67
2022/12/04 04:33:50;;;;;;;7.20;6.53;;;;;;;;;;5141790;27;20274;-67
2022/12/04 04:36:23;;;;;;;7.38;6.72;;;;;;;;;;5141208;27;20210;-67
2022/12/04 04:38:55;;;;;;;7.53;6.82;;;;;;;;;;5140690;27;20312;-68
2022/12/04 04:41:26;;;;;;;7.15;6.47;;;;;;;;;;5141207;27;20206;-67
2022/12/04 04:43:58;;;;;;;7.35;6.65;;;;;;;;;;5140630;27;20213;-68
2022/12/04 04:46:32;;;;;;;7.60;6.90;;;;;;;;;;5140958;27;20210;-68
2022/12/04 04:49:01;;;;;;;7.82;7.03;;;;;;;;;;5140572;27;20243;-68
2022/12/04 04:51:31;;;;;;;7.70;6.93;;;;;;;;;;5140801;27;20263;-68
2022/12/04 04:54:01;;;;;;;7.40;6.70;;;;;;;;;;5140267;27;20202;-67
2022/12/04 04:56:29;;;;;;;7.07;6.38;;;;;;;;;;5140482;27;20206;-67
2022/12/04 04:58:56;;;;;;;7.28;6.57;;;;;;;;;;5140305;27;20276;-68
2022/12/04 05:01:25;;;;;;;7.63;6.82;;;;;;;;;;5140431;27;20205;-68
2022/12/04 05:03:54;;;;;;;7.47;6.78;;;;;;;;;;5139880;27;20208;-67
2022/12/04 05:06:21;;;;;;;7.18;6.47;;;;;;;;;;5140443;27;20209;-68
2022/12/04 05:08:49;;;;;;;6.75;6.15;;;;;;;;;;5140695;27;20209;-68
2022/12/04 05:11:17;;;;;;;7.47;6.78;;;;;;;;;;5140090;27;20245;-67
2022/12/04 05:13:45;;;;;;;7.40;6.70;;;;;;;;;;5139315;27;20585;-67
2022/12/04 05:16:13;;;;;;;7.32;6.63;;;;;;;;;;5139918;27;20301;-68
2022/12/04 05:19:52;;;;;;;7.50;6.80;;;;;;;;;;5140024;27;20228;-68
2022/12/04 05:21:29;;;;;;;6.90;6.30;;;;;;;;;;5139633;27;20202;-68
2022/12/04 05:23:56;;;;;;;7.40;6.70;;;;;;;;;;5139746;27;20294;-68
2022/12/04 05:26:24;;;;;;;7.03;6.32;;;;;;;;;;5140191;27;20214;-67
2022/12/04 05:28:51;;;;;;;7.20;6.50;;;;;;;;;;5140124;27;20469;-67
2022/12/04 05:31:18;;;;;;;7.68;6.93;;;;;;;;;;5139576;27;20206;-68
2022/12/04 05:33:46;;;;;;;7.93;7.13;;;;;;;;;;5139719;27;20202;-68
2022/12/04 05:36:13;;;;;;;7.63;6.93;;;;;;;;;;5139898;27;20237;-67
2022/12/04 05:38:42;;;;;;;6.97;6.28;;;;;;;;;;5139453;27;20233;-68
2022/12/04 05:41:10;;;;;;;7.53;6.82;;;;;;;;;;5140044;27;20213;-68
2022/12/04 05:43:37;;;;;;;7.40;6.70;;;;;;;;;;5139027;27;20202;-68
2022/12/04 05:46:05;;;;;;;7.72;6.93;;;;;;;;;;5139892;27;20202;-68
2022/12/04 05:48:34;;;;;;;7.75;6.97;;;;;;;;;;5139971;27;20199;-67
2022/12/04 05:51:01;;;;;;;7.93;7.20;;;;;;;;;;5139531;27;20248;-67
2022/12/04 05:53:29;;;;;;;7.15;6.45;;;;;;;;;;5139631;27;20209;-68
2022/12/04 05:55:59;;;;;;;7.15;6.45;;;;;;;;;;5139113;27;20214;-68
2022/12/04 05:58:26;;;;;;;7.05;6.35;;;;;;;;;;5138917;27;20209;-68
2022/12/04 06:00:54;;;;;;;6.93;6.32;;;;;;;;;;5139704;27;20209;-68
2022/12/04 06:03:22;;;;;;;7.00;6.40;;;;;;;;;;5139363;27;20209;-68
2022/12/04 06:05:49;;;;;;;7.28;6.57;;;;;;;;;;5138702;27;20557;-67
2022/12/04 06:08:17;;;;;;;7.22;6.53;;;;;;;;;;5139252;27;20205;-68
2022/12/04 06:10:44;;;;;;;8.15;7.35;;;;;;;;;;5139171;27;20213;-68
2022/12/04 06:13:13;;;;;;;7.13;6.43;;;;;;;;;;5139454;27;20213;-68
2022/12/04 06:15:41;;;;;;;7.60;6.80;;;;;;;;;;5139468;27;20493;-67
2022/12/04 06:18:08;;;;;;;8.30;7.50;;;;;;;;;;5139278;27;20207;-68
2022/12/04 06:20:36;;;;;;;7.30;6.60;;;;;;;;;;5138925;27;20218;-67
2022/12/04 06:23:03;;;;;;;7.70;7.00;;;;;;;;;;5138900;27;20620;-68
2022/12/04 06:25:31;;;;;;;7.43;6.72;;;;;;;;;;5138635;27;20202;-67
2022/12/04 06:27:58;;;;;;;7.43;6.72;;;;;;;;;;5139097;27;20217;-68
2022/12/04 06:30:29;;;;;;;7.47;6.75;;;;;;;;;;5139012;27;20202;-68
2022/12/04 06:32:56;;;;;;;7.57;6.78;;;;;;;;;;5139104;27;20240;-67
2022/12/04 06:35:24;;;;;;;7.20;6.50;;;;;;;;;;5138332;27;20198;-67
2022/12/04 06:37:51;;;;;;;8.00;7.20;;;;;;;;;;5138095;27;20213;-67
2022/12/04 06:40:19;;;;;;;7.53;6.80;;;;;;;;;;5137894;27;20229;-68
2022/12/04 06:42:46;;;;;;;8.00;7.20;;;;;;;;;;5138359;27;20194;-67
2022/12/04 06:45:14;;;;;;;7.57;6.88;;;;;;;;;;5138639;27;20212;-67
2022/12/04 06:47:43;;;;;;;7.32;6.63;;;;;;;;;;5138217;27;20569;-68
2022/12/04 06:50:11;;;;;;;7.78;7.05;;;;;;;;;;5138404;27;20201;-66
2022/12/04 06:52:38;;;;;;;7.78;7.00;;;;;;;;;;5138358;27;20293;-67
2022/12/04 06:55:06;;;;;;;7.78;6.97;;;;;;;;;;5138334;27;20198;-67
2022/12/04 06:57:34;;;;;;;7.65;6.88;;;;;;;;;;5138451;27;20202;-67
2022/12/04 07:00:01;;;;;;;7.75;7.05;;;;;;;;;;5138484;27;20233;-67
2022/12/04 07:02:29;;;;;;;7.53;6.82;;;;;;;;;;5138452;27;20482;-68
2022/12/04 07:04:58;;;;;;;7.85;7.15;;;;;;;;;;5137908;27;20202;-67
2022/12/04 07:07:25;;;;;;;7.60;6.90;;;;;;;;;;5137956;27;20242;-67
2022/12/04 07:09:52;;;;;;;7.80;7.00;;;;;;;;;;5138279;27;20472;-67
2022/12/04 07:12:20;;;;;;;7.43;6.72;;;;;;;;;;5137610;28;20280;-67
2022/12/04 07:14:47;;;;;;;7.07;6.38;;;;;;;;;;5138106;28;20202;-68
2022/12/04 07:17:15;;;;;;;7.80;6.93;;;;;;;;;;5137994;27;20214;-67
2022/12/04 07:19:42;;;;;;;8.35;7.55;;;;;;;;;;5141278;27;20225;-67
2022/12/04 07:22:11;;;;;;;7.82;7.03;;;;;;;;;;5142332;27;20212;-67
2022/12/04 07:24:38;;;;;;;7.50;6.70;;;;;;;;;;5142102;27;20226;-67
2022/12/04 07:27:06;;;;;;;7.95;7.15;;;;;;;;;;5141959;27;20304;-67
2022/12/04 07:29:33;;;;;;;8.02;7.22;;;;;;;;;;5141764;27;20209;-67
2022/12/04 07:32:01;;;;;;;9.82;7.68;;;;;;;;;;5141943;27;20492;-67
2022/12/04 07:34:28;;;;;;;8.30;7.38;;;;;;;;;;5142015;27;20209;-67
2022/12/04 07:36:56;;;;;;;7.60;6.88;;;;;;;;;;5141903;27;20202;-67
2022/12/04 07:39:24;;;;;;;7.68;6.95;;;;;;;;;;5141834;27;20222;-67
2022/12/04 07:41:52;;;;;;;8.60;7.50;;;;;;;;;;5141728;27;20202;-66
2022/12/04 07:44:19;;;;;;;7.75;6.80;;;;;;;;;;5141850;27;20228;-67
2022/12/04 07:46:47;;;;;;;9.23;7.20;;;;;;;;;;5141848;27;20613;-67
2022/12/04 07:49:15;;;;;;;11.23;8.35;;;;;;;;;;5141854;27;20603;-67
2022/12/04 07:51:42;;;;;;;15.55;12.90;;;;;;;;;;5142004;27;20221;-67
2022/12/04 07:54:09;;;;;;;21.30;15.63;;;;;;;;;;5141905;27;20213;-67
2022/12/04 07:56:39;;;;;;;17.60;14.07;;;;;;;;;;5141604;27;20205;-67
2022/12/04 07:59:06;;;;;;;16.25;13.55;;;;;;;;;;5141340;27;20604;-67
2022/12/04 08:01:33;;;;;;;18.00;13.75;;;;;;;;;;5141430;27;20212;-67
2022/12/04 08:04:02;;;;;;;18.27;14.30;;;;;;;;;;5141880;27;20489;-67
2022/12/04 08:06:29;;;;;;;21.08;16.42;;;;;;;;;;5141795;27;20235;-67
2022/12/04 08:08:57;;;;;;;22.83;19.70;;;;;;;;;;5140996;27;20577;-66
2022/12/04 08:11:26;;;;;;;26.15;23.38;;;;;;;;;;5140935;27;20217;-68
2022/12/04 08:13:56;;;;;;;27.80;24.48;;;;;;;;;;5141074;27;20209;-67
2022/12/04 08:16:23;;;;;;;28.77;25.67;;;;;;;;;;5141427;27;20262;-67
2022/12/04 08:18:51;;;;;;;27.10;24.25;;;;;;;;;;5140968;27;20202;-67
2022/12/04 08:21:19;;;;;;;29.48;25.38;;;;;;;;;;5141192;27;20208;-67
2022/12/04 08:23:47;;;;;;;26.90;24.00;;;;;;;;;;5140501;27;20302;-67
2022/12/04 08:26:15;;;;;;;25.67;22.90;;;;;;;;;;5140660;27;20212;-67
2022/12/04 08:28:43;;;;;;;25.17;21.75;;;;;;;;;;5140147;27;20202;-67
2022/12/04 08:31:13;;;;;;;25.40;22.35;;;;;;;;;;5140265;27;20203;-67
2022/12/04 08:33:41;;;;;;;24.70;21.38;;;;;;;;;;5140835;27;20212;-67
2022/12/04 08:36:10;;;;;;;24.40;21.70;;;;;;;;;;5140776;27;20202;-67
2022/12/04 08:38:38;;;;;;;25.48;21.52;;;;;;;;;;5140186;27;20207;-67
2022/12/04 08:41:06;;;;;;;24.02;20.38;;;;;;;;;;5140618;27;20236;-67
2022/12/04 08:43:33;;;;;;;22.67;20.33;;;;;;;;;;5140173;27;20217;-67
2022/12/04 08:46:02;;;;;;;168.65;104.78;;;;;;;;;;5140583;27;20224;-67
2022/12/04 08:48:31;;;;;;;173.15;116.45;;;;;;;;;;5140500;27;20655;-67
2022/12/04 08:50:59;;;;;;;167.40;118.70;;;;;;;;;;5140302;27;20201;-67
2022/12/04 08:53:26;;;;;;;158.65;110.60;;;;;;;;;;5140230;27;20593;-67
2022/12/04 08:55:54;;;;;;;152.85;107.28;;;;;;;;;;5140490;27;20209;-67
2022/12/04 08:58:21;;;;;;;151.48;109.53;;;;;;;;;;5140133;27;20197;-67
2022/12/04 09:00:49;;;;;;;157.18;113.32;;;;;;;;;;5139597;27;20222;-67
2022/12/04 09:03:18;;;;;;;151.50;114.32;;;;;;;;;;5140107;27;20206;-67
2022/12/04 09:05:47;;;;;;;148.68;112.13;;;;;;;;;;5139660;27;20213;-67
2022/12/04 09:08:15;;;;;;;147.85;111.95;;;;;;;;;;5139927;27;20205;-68
2022/12/04 09:10:43;;;;;;;140.00;107.32;;;;;;;;;;5139756;27;20208;-67
2022/12/04 09:13:10;;;;;;;139.57;107.47;;;;;;;;;;5137229;27;20652;-67
2022/12/04 09:15:39;;;;;;;139.95;110.30;;;;;;;;;;5138462;27;20205;-67
2022/12/04 09:18:07;;;;;;;134.10;108.18;;;;;;;;;;5139170;27;20202;-67
2022/12/04 09:20:35;;;;;;;137.32;107.30;;;;;;;;;;5139080;27;20222;-67
2022/12/04 09:23:04;;;;;;;130.82;104.25;;;;;;;;;;5138481;27;20500;-67
2022/12/04 09:25:31;;;;;;;127.53;103.00;;;;;;;;;;5139387;27;20212;-67
2022/12/04 09:27:59;;;;;;;121.82;98.95;;;;;;;;;;5139287;27;20202;-67
2022/12/04 09:30:26;;;;;;;121.80;95.85;;;;;;;;;;5138951;27;20502;-67
2022/12/04 09:32:55;;;;;;;118.63;96.03;;;;;;;;;;5137658;27;20190;-67
2022/12/04 09:35:22;;;;;;;117.88;95.32;;;;;;;;;;5138858;27;20198;-67
2022/12/04 09:37:49;;;;;;;113.07;92.03;;;;;;;;;;5139080;27;20208;-67
2022/12/04 09:40:24;;;;;;;110.75;88.53;;;;;;;;;;5138846;27;20226;-67
2022/12/04 09:42:56;;;;;;;107.60;89.95;;;;;;;;;;5136718;27;20193;-67
2022/12/04 09:45:25;;;;;;;106.93;85.82;;;;;;;;;;5138646;27;20197;-67
2022/12/04 09:47:53;;;;;;;97.97;80.25;;;;;;;;;;5138460;27;20203;-67
2022/12/04 09:50:22;;;;;;;97.97;79.78;;;;;;;;;;5138972;27;20212;-67
2022/12/04 09:52:54;;;;;;;92.18;76.32;;;;;;;;;;5138047;27;20202;-68
2022/12/04 09:55:26;;;;;;;91.35;75.22;;;;;;;;;;5138527;27;20213;-67
2022/12/04 09:57:55;;;;;;;89.13;71.65;;;;;;;;;;5138392;27;20213;-67
2022/12/04 10:00:23;;;;;;;85.18;70.72;;;;;;;;;;5138776;27;20690;-67
2022/12/04 10:02:52;;;;;;;85.57;68.97;;;;;;;;;;5137910;27;20205;-67
2022/12/04 10:05:22;;;;;;;82.78;66.45;;;;;;;;;;5138027;27;20198;-67
2022/12/04 10:07:53;;;;;;;82.68;66.63;;;;;;;;;;5137994;27;20212;-67
2022/12/04 10:10:24;;;;;;;78.55;64.20;;;;;;;;;;5138481;27;20198;-67
2022/12/04 10:12:55;;;;;;;72.88;63.53;;;;;;;;;;5136410;27;20198;-67
2022/12/04 10:15:27;;;;;;;77.20;62.13;;;;;;;;;;5136044;27;20208;-67
2022/12/04 10:18:05;;;;;;;68.07;59.53;;;;;;;;;;5137081;27;20238;-67
2022/12/04 10:20:41;;;;;;;66.70;56.50;;;;;;;;;;5137094;27;20222;-68
2022/12/04 10:23:12;;;;;;;66.28;56.67;;;;;;;;;;5137787;27;20202;-67
2022/12/04 10:25:40;;;;;;;64.93;54.88;;;;;;;;;;5138197;27;20206;-67
2022/12/04 10:28:15;;;;;;;60.42;52.70;;;;;;;;;;5134161;27;20204;-67
2022/12/04 10:30:44;;;;;;;60.33;51.20;;;;;;;;;;5117385;28;20209;-67
2022/12/04 10:33:16;;;;;;;59.75;51.53;;;;;;;;;;5117605;28;20209;-67
2022/12/04 10:35:45;;;;;;;67.88;57.55;;;;;;;;;;5116723;28;20286;-67
2022/12/04 10:38:27;;;;;;;60.83;53.13;;;;;;;;;;5116733;28;20195;-67
2022/12/04 10:40:56;;;;;;;58.40;51.45;;;;;;;;;;5117447;28;20228;-67
2022/12/04 10:43:30;;;;;;;57.33;51.05;;;;;;;;;;5116753;28;20454;-67
2022/12/04 10:45:57;;;;;;;55.03;48.22;;;;;;;;;;5117210;28;20289;-67
2022/12/04 10:48:27;;;;;;;56.58;48.45;;;;;;;;;;5115905;28;20190;-67
2022/12/04 10:50:55;;;;;;;51.70;45.83;;;;;;;;;;5116852;28;20199;-68
2022/12/04 10:53:26;;;;;;;48.58;42.90;;;;;;;;;;5128605;27;20191;-67
2022/12/04 10:55:53;;;;;;;48.08;42.45;;;;;;;;;;5116203;28;20198;-67
2022/12/04 10:58:20;;;;;;;46.55;41.45;;;;;;;;;;5115986;28;20203;-67
2022/12/04 11:01:00;;;;;;;46.38;40.58;;;;;;;;;;5115702;28;20229;-67
2022/12/04 11:03:29;;;;;;;43.15;38.47;;;;;;;;;;5115523;28;20205;-67
2022/12/04 11:05:58;;;;;;;42.35;37.40;;;;;;;;;;5114804;28;20264;-68
2022/12/04 11:08:26;;;;;;;42.75;37.10;;;;;;;;;;5136239;27;20224;-67
2022/12/04 11:10:58;;;;;;;39.35;35.03;;;;;;;;;;5136091;27;20213;-67
2022/12/04 11:13:25;;;;;;;38.60;34.40;;;;;;;;;;5136487;27;20224;-67
2022/12/04 11:15:55;;;;;;;37.85;33.75;;;;;;;;;;5125136;28;20764;-67
2022/12/04 11:18:23;;;;;;;37.67;33.47;;;;;;;;;;5115751;28;20209;-67
2022/12/04 11:20:52;;;;;;;37.30;32.10;;;;;;;;;;5115098;28;20803;-66
2022/12/04 11:23:19;;;;;;;34.67;30.98;;;;;;;;;;5114464;27;20227;-68
2022/12/04 11:25:48;;;;;;;33.67;30.05;;;;;;;;;;5115201;28;20214;-67
2022/12/04 11:28:17;;;;;;;32.97;29.45;;;;;;;;;;5115283;28;20195;-67
2022/12/04 11:30:49;;;;;;;31.10;27.88;;;;;;;;;;5115900;28;20267;-67
2022/12/04 11:33:19;;;;;;;33.35;29.63;;;;;;;;;;5114969;28;20206;-67
2022/12/04 11:35:52;;;;;;;38.05;34.22;;;;;;;;;;5120837;28;20234;-67
2022/12/04 11:38:20;;;;;;;38.60;34.78;;;;;;;;;;5115417;28;20493;-67
2022/12/04 11:40:48;;;;;;;35.80;32.10;;;;;;;;;;5115177;28;20261;-67
2022/12/04 11:43:17;;;;;;;34.25;30.70;;;;;;;;;;5115018;28;20202;-67
2022/12/04 11:45:55;;;;;;;33.75;30.25;;;;;;;;;;5114950;28;20196;-67
2022/12/04 11:48:24;;;;;;;31.88;28.63;;;;;;;;;;5115528;28;20209;-67
2022/12/04 11:50:54;;;;;;;30.75;27.73;;;;;;;;;;5115446;28;20203;-67
2022/12/04 11:53:25;;;;;;;29.92;26.85;;;;;;;;;;5115613;28;20203;-66
2022/12/04 11:56:01;;;;;;;30.13;27.02;;;;;;;;;;5114722;28;20205;-67
2022/12/04 11:58:49;;;;;;;30.15;27.05;;;;;;;;;;5115523;28;20571;-67
2022/12/04 12:01:21;;;;;;;28.30;25.45;;;;;;;;;;5081261;28;20238;-67
2022/12/04 12:03:57;;;;;;;28.25;25.30;;;;;;;;;;5115506;28;20206;-67
2022/12/04 12:06:30;;;;;;;26.42;23.75;;;;;;;;;;5118139;28;20293;-67
2022/12/04 12:09:03;;;;;;;25.88;23.17;;;;;;;;;;5119108;28;20306;-67
2022/12/04 12:11:33;;;;;;;26.55;23.35;;;;;;;;;;5118933;28;20199;-67
2022/12/04 12:14:07;;;;;;;25.30;22.58;;;;;;;;;;5118622;28;20203;-66
2022/12/04 12:16:38;;;;;;;23.55;21.15;;;;;;;;;;5118367;28;20207;-67
2022/12/04 12:19:18;;;;;;;24.08;21.58;;;;;;;;;;5119180;28;20217;-67
2022/12/04 12:21:51;;;;;;;23.08;20.58;;;;;;;;;;5119399;28;20653;-67
2022/12/04 12:24:24;;;;;;;22.00;19.70;;;;;;;;;;5130795;27;20269;-68
2022/12/04 12:26:55;;;;;;;20.88;18.73;;;;;;;;;;5122086;27;20473;-67
2022/12/04 12:29:36;;;;;;;25.10;18.75;;;;;;;;;;5117943;28;20203;-67
2022/12/04 12:32:09;;;;;;;22.02;19.67;;;;;;;;;;5118566;28;20221;-67
2022/12/04 12:34:40;;;;;;;20.33;18.23;;;;;;;;;;5117712;28;20686;-67
2022/12/04 12:37:12;;;;;;;20.45;18.33;;;;;;;;;;5135990;27;20209;-67
2022/12/04 12:39:40;;;;;;;19.05;16.95;;;;;;;;;;5137730;27;20205;-68
2022/12/04 12:42:13;;;;;;;19.13;17.23;;;;;;;;;;5137957;27;20321;-67
2022/12/04 12:44:43;;;;;;;18.17;16.25;;;;;;;;;;5137614;27;20202;-67
2022/12/04 12:47:14;;;;;;;19.08;16.48;;;;;;;;;;5118064;27;20195;-67
2022/12/04 12:49:48;;;;;;;19.27;17.13;;;;;;;;;;5117981;28;20230;-67
2022/12/04 12:52:18;;;;;;;17.67;15.73;;;;;;;;;;5117787;28;20199;-67
2022/12/04 12:54:47;;;;;;;18.02;16.13;;;;;;;;;;5117698;28;20621;-68
2022/12/04 12:57:17;;;;;;;17.52;15.63;;;;;;;;;;5136500;27;20342;-67
2022/12/04 12:59:47;;;;;;;18.55;15.77;;;;;;;;;;5137910;27;20697;-67
2022/12/04 13:02:20;;;;;;;18.48;16.25;;;;;;;;;;5137793;27;20218;-67
2022/12/04 13:04:49;;;;;;;20.75;18.45;;;;;;;;;;5137482;27;20208;-67
2022/12/04 13:07:27;;;;;;;26.45;23.77;;;;;;;;;;5117938;27;20199;-67
2022/12/04 13:09:57;;;;;;;24.77;22.27;;;;;;;;;;5116150;28;20478;-67
2022/12/04 13:12:25;;;;;;;24.38;21.92;;;;;;;;;;5115663;28;20598;-67
2022/12/04 13:14:52;;;;;;;24.25;21.67;;;;;;;;;;5116278;28;20198;-67
2022/12/04 13:17:23;;;;;;;23.65;21.15;;;;;;;;;;5133716;27;20230;-67
2022/12/04 13:19:53;;;;;;;24.35;21.80;;;;;;;;;;5136646;27;20202;-67
2022/12/04 13:22:27;;;;;;;22.83;20.48;;;;;;;;;;5136079;27;20237;-67
2022/12/04 13:25:13;;;;;;;23.27;20.63;;;;;;;;;;5129027;27;20235;-67
2022/12/04 13:27:46;;;;;;;23.27;20.58;;;;;;;;;;5095340;28;20203;-67
2022/12/04 13:30:17;;;;;;;22.02;19.67;;;;;;;;;;5095955;28;20204;-67
2022/12/04 13:32:56;;;;;;;20.83;18.63;;;;;;;;;;5095795;28;20199;-67
2022/12/04 13:35:30;;;;;;;20.75;18.58;;;;;;;;;;5099292;27;20199;-67
2022/12/04 13:38:11;;;;;;;20.60;18.50;;;;;;;;;;5135782;27;20197;-67
2022/12/04 13:40:40;;;;;;;20.95;18.88;;;;;;;;;;5131413;27;20198;-67
2022/12/04 13:43:20;;;;;;;19.77;17.70;;;;;;;;;;5115502;28;20234;-68
2022/12/04 13:45:50;;;;;;;21.83;18.95;;;;;;;;;;5121656;27;20198;-67
2022/12/04 13:48:27;;;;;;;20.20;18.13;;;;;;;;;;5136322;27;20206;-67
2022/12/04 13:51:04;;;;;;;19.73;17.63;;;;;;;;;;5135905;27;20208;-67
2022/12/04 13:53:32;;;;;;;19.30;17.38;;;;;;;;;;5135055;27;20202;-67
2022/12/04 13:56:00;;;;;;;19.17;17.17;;;;;;;;;;5134938;27;20195;-67
2022/12/04 13:58:28;;;;;;;20.52;17.38;;;;;;;;;;5134905;27;20201;-67
2022/12/04 14:01:03;;;;;;;18.75;16.85;;;;;;;;;;5135325;27;20198;-68
2022/12/04 14:03:33;;;;;;;18.08;16.23;;;;;;;;;;5135336;27;20217;-68
2022/12/04 14:06:04;;;;;;;18.92;16.33;;;;;;;;;;5128876;27;20222;-67
2022/12/04 14:08:37;;;;;;;18.88;16.90;;;;;;;;;;5115664;28;20203;-67
2022/12/04 14:11:06;;;;;;;17.60;15.80;;;;;;;;;;5115451;28;20207;-67
2022/12/04 14:13:41;;;;;;;17.77;15.98;;;;;;;;;;5114806;28;20202;-67
2022/12/04 14:16:16;;;;;;;19.05;16.67;;;;;;;;;;5121889;27;20190;-67
2022/12/04 14:18:47;;;;;;;16.90;15.25;;;;;;;;;;5134437;27;20201;-68
2022/12/04 14:21:14;;;;;;;17.23;15.43;;;;;;;;;;5135749;27;20456;-67
2022/12/04 14:23:44;;;;;;;16.52;14.82;;;;;;;;;;5135018;27;20241;-67
2022/12/04 14:26:21;;;;;;;16.58;14.88;;;;;;;;;;5126209;27;20202;-67
2022/12/04 14:28:49;;;;;;;17.38;15.57;;;;;;;;;;5114897;28;20203;-67
2022/12/04 14:31:22;;;;;;;27.42;24.63;;;;;;;;;;5114383;28;20199;-68
2022/12/04 14:33:51;;;;;;;26.75;23.00;;;;;;;;;;5114554;28;20202;-67
2022/12/04 14:36:20;;;;;;;32.55;29.25;;;;;;;;;;5114179;28;20198;-67
2022/12/04 14:38:49;;;;;;;34.42;30.88;;;;;;;;;;5134383;27;20309;-67
2022/12/04 14:41:25;;;;;;;33.85;30.30;;;;;;;;;;5100653;27;20270;-67
2022/12/04 14:43:52;;;;;;;33.72;30.20;;;;;;;;;;5094382;28;20207;-67
2022/12/04 14:46:23;;;;;;;32.47;29.17;;;;;;;;;;5102139;28;20195;-68
2022/12/04 14:48:54;;;;;;;32.65;29.35;;;;;;;;;;5114119;28;20210;-67